sensor_id;sensor_type;location;lat;lon;timestamp;temperature;humidity
19214;DHT22;9741;51.020;5.304;2023-12-29T00:00:35;12.30;62.10
19214;DHT22;9741;51.020;5.304;2023-12-29T00:03:05;12.20;62.00
19214;DHT22;9741;51.020;5.304;2023-12-29T00:05:37;12.20;62.00
19214;DHT22;9741;51.020;5.304;2023-12-29T00:08:05;12.20;62.00
19214;DHT22;9741;51.020;5.304;2023-12-29T00:10:32;12.10;62.00
19214;DHT22;9741;51.020;5.304;2023-12-29T00:12:59;12.10;62.00
19214;DHT22;9741;51.020;5.304;2023-12-29T00:15:29;12.10;62.00
19214;DHT22;9741;51.020;5.304;2023-12-29T00:17:58;12.10;62.10
19214;DHT22;9741;51.020;5.304;2023-12-29T00:20:26;12.10;62.20
19214;DHT22;9741;51.020;5.304;2023-12-29T00:22:55;12.10;62.20
19214;DHT22;9741;51.020;5.304;2023-12-29T00:25:24;12.00;62.10
19214;DHT22;9741;51.020;5.304;2023-12-29T00:27:54;12.00;62.10
19214;DHT22;9741;51.020;5.304;2023-12-29T00:30:21;12.00;62.10
19214;DHT22;9741;51.020;5.304;2023-12-29T00:32:52;12.00;62.10
19214;DHT22;9741;51.020;5.304;2023-12-29T00:35:21;12.00;62.10
19214;DHT22;9741;51.020;5.304;2023-12-29T00:37:50;12.10;62.20
19214;DHT22;9741;51.020;5.304;2023-12-29T00:40:19;12.10;62.20
19214;DHT22;9741;51.020;5.304;2023-12-29T00:42:49;12.10;62.20
19214;DHT22;9741;51.020;5.304;2023-12-29T00:45:16;12.10;62.20
19214;DHT22;9741;51.020;5.304;2023-12-29T00:47:46;12.10;62.20
19214;DHT22;9741;51.020;5.304;2023-12-29T00:50:14;12.10;62.20
19214;DHT22;9741;51.020;5.304;2023-12-29T00:52:44;12.10;62.20
19214;DHT22;9741;51.020;5.304;2023-12-29T00:55:11;12.10;62.10
19214;DHT22;9741;51.020;5.304;2023-12-29T00:57:40;12.10;62.10
19214;DHT22;9741;51.020;5.304;2023-12-29T01:00:10;12.10;62.10
19214;DHT22;9741;51.020;5.304;2023-12-29T01:02:40;12.10;62.10
19214;DHT22;9741;51.020;5.304;2023-12-29T01:05:10;12.10;62.10
19214;DHT22;9741;51.020;5.304;2023-12-29T01:07:46;12.10;62.10
19214;DHT22;9741;51.020;5.304;2023-12-29T01:10:13;12.10;62.10
19214;DHT22;9741;51.020;5.304;2023-12-29T01:12:42;12.10;62.10
19214;DHT22;9741;51.020;5.304;2023-12-29T01:15:09;12.10;62.20
19214;DHT22;9741;51.020;5.304;2023-12-29T01:17:41;12.10;62.10
19214;DHT22;9741;51.020;5.304;2023-12-29T01:20:12;12.10;62.10
19214;DHT22;9741;51.020;5.304;2023-12-29T01:22:39;12.10;62.10
19214;DHT22;9741;51.020;5.304;2023-12-29T01:25:08;12.10;62.20
19214;DHT22;9741;51.020;5.304;2023-12-29T01:27:35;12.10;62.20
19214;DHT22;9741;51.020;5.304;2023-12-29T01:30:05;12.10;62.20
19214;DHT22;9741;51.020;5.304;2023-12-29T01:32:38;12.10;62.20
19214;DHT22;9741;51.020;5.304;2023-12-29T01:35:06;12.10;62.20
19214;DHT22;9741;51.020;5.304;2023-12-29T01:37:36;12.10;62.20
19214;DHT22;9741;51.020;5.304;2023-12-29T01:40:07;12.10;62.20
19214;DHT22;9741;51.020;5.304;2023-12-29T01:42:34;12.10;62.20
19214;DHT22;9741;51.020;5.304;2023-12-29T01:45:06;12.10;62.20
19214;DHT22;9741;51.020;5.304;2023-12-29T01:47:46;12.10;62.20
19214;DHT22;9741;51.020;5.304;2023-12-29T01:50:21;12.10;62.20
19214;DHT22;9741;51.020;5.304;2023-12-29T01:52:52;12.10;62.20
19214;DHT22;9741;51.020;5.304;2023-12-29T01:55:21;12.10;62.20
19214;DHT22;9741;51.020;5.304;2023-12-29T01:57:49;12.10;62.20
19214;DHT22;9741;51.020;5.304;2023-12-29T02:00:24;12.10;62.20
19214;DHT22;9741;51.020;5.304;2023-12-29T02:02:59;12.10;62.20
19214;DHT22;9741;51.020;5.304;2023-12-29T02:05:27;12.10;62.20
19214;DHT22;9741;51.020;5.304;2023-12-29T02:07:56;12.10;62.20
19214;DHT22;9741;51.020;5.304;2023-12-29T02:10:27;12.10;62.20
19214;DHT22;9741;51.020;5.304;2023-12-29T02:12:54;12.10;62.30
19214;DHT22;9741;51.020;5.304;2023-12-29T02:15:27;12.10;62.30
19214;DHT22;9741;51.020;5.304;2023-12-29T02:18:01;12.10;62.30
19214;DHT22;9741;51.020;5.304;2023-12-29T02:20:30;12.10;62.30
19214;DHT22;9741;51.020;5.304;2023-12-29T02:22:57;12.10;62.30
19214;DHT22;9741;51.020;5.304;2023-12-29T02:25:26;12.10;62.30
19214;DHT22;9741;51.020;5.304;2023-12-29T02:27:57;12.10;62.30
19214;DHT22;9741;51.020;5.304;2023-12-29T02:30:28;12.10;62.40
19214;DHT22;9741;51.020;5.304;2023-12-29T02:33:04;12.10;62.40
19214;DHT22;9741;51.020;5.304;2023-12-29T02:35:34;12.10;63.00
19214;DHT22;9741;51.020;5.304;2023-12-29T02:38:02;12.10;62.50
19214;DHT22;9741;51.020;5.304;2023-12-29T02:40:31;12.10;62.50
19214;DHT22;9741;51.020;5.304;2023-12-29T02:42:59;12.10;62.50
19214;DHT22;9741;51.020;5.304;2023-12-29T02:45:27;12.10;62.50
19214;DHT22;9741;51.020;5.304;2023-12-29T02:47:57;12.10;62.50
19214;DHT22;9741;51.020;5.304;2023-12-29T02:50:24;12.10;62.50
19214;DHT22;9741;51.020;5.304;2023-12-29T02:52:51;12.10;62.50
19214;DHT22;9741;51.020;5.304;2023-12-29T02:55:18;12.10;62.60
19214;DHT22;9741;51.020;5.304;2023-12-29T02:57:47;12.10;62.60
19214;DHT22;9741;51.020;5.304;2023-12-29T03:00:15;12.00;62.50
19214;DHT22;9741;51.020;5.304;2023-12-29T03:02:44;12.00;62.50
19214;DHT22;9741;51.020;5.304;2023-12-29T03:05:12;12.10;62.60
19214;DHT22;9741;51.020;5.304;2023-12-29T03:07:39;12.10;62.60
19214;DHT22;9741;51.020;5.304;2023-12-29T03:10:07;12.10;62.60
19214;DHT22;9741;51.020;5.304;2023-12-29T03:12:35;12.10;62.60
19214;DHT22;9741;51.020;5.304;2023-12-29T03:15:06;12.10;62.60
19214;DHT22;9741;51.020;5.304;2023-12-29T03:17:36;12.10;62.60
19214;DHT22;9741;51.020;5.304;2023-12-29T03:20:04;12.10;62.60
19214;DHT22;9741;51.020;5.304;2023-12-29T03:22:31;12.10;62.60
19214;DHT22;9741;51.020;5.304;2023-12-29T03:24:58;12.10;62.60
19214;DHT22;9741;51.020;5.304;2023-12-29T03:27:25;12.10;63.30
19214;DHT22;9741;51.020;5.304;2023-12-29T03:29:53;12.00;62.70
19214;DHT22;9741;51.020;5.304;2023-12-29T03:32:21;12.10;62.80
19214;DHT22;9741;51.020;5.304;2023-12-29T03:34:49;12.10;62.80
19214;DHT22;9741;51.020;5.304;2023-12-29T03:37:16;12.10;62.80
19214;DHT22;9741;51.020;5.304;2023-12-29T03:39:44;12.10;62.80
19214;DHT22;9741;51.020;5.304;2023-12-29T03:42:11;12.00;62.70
19214;DHT22;9741;51.020;5.304;2023-12-29T03:44:42;12.00;62.70
19214;DHT22;9741;51.020;5.304;2023-12-29T03:47:12;11.90;62.70
19214;DHT22;9741;51.020;5.304;2023-12-29T03:49:40;11.90;62.80
19214;DHT22;9741;51.020;5.304;2023-12-29T03:52:12;11.90;62.80
19214;DHT22;9741;51.020;5.304;2023-12-29T03:54:42;11.90;62.90
19214;DHT22;9741;51.020;5.304;2023-12-29T03:57:09;11.90;62.90
19214;DHT22;9741;51.020;5.304;2023-12-29T03:59:36;11.80;62.90
19214;DHT22;9741;51.020;5.304;2023-12-29T04:02:04;11.80;62.90
19214;DHT22;9741;51.020;5.304;2023-12-29T04:04:34;11.80;62.90
19214;DHT22;9741;51.020;5.304;2023-12-29T04:07:04;11.80;62.90
19214;DHT22;9741;51.020;5.304;2023-12-29T04:09:32;11.80;62.90
19214;DHT22;9741;51.020;5.304;2023-12-29T04:11:59;11.80;63.00
19214;DHT22;9741;51.020;5.304;2023-12-29T04:14:29;11.80;63.00
19214;DHT22;9741;51.020;5.304;2023-12-29T04:16:56;11.80;63.00
19214;DHT22;9741;51.020;5.304;2023-12-29T04:19:26;11.80;63.10
19214;DHT22;9741;51.020;5.304;2023-12-29T04:21:53;11.70;63.00
19214;DHT22;9741;51.020;5.304;2023-12-29T04:24:22;11.70;63.10
19214;DHT22;9741;51.020;5.304;2023-12-29T04:26:49;11.70;63.10
19214;DHT22;9741;51.020;5.304;2023-12-29T04:29:16;11.70;63.10
19214;DHT22;9741;51.020;5.304;2023-12-29T04:31:45;11.70;63.10
19214;DHT22;9741;51.020;5.304;2023-12-29T04:34:12;11.70;63.20
19214;DHT22;9741;51.020;5.304;2023-12-29T04:36:44;11.60;63.10
19214;DHT22;9741;51.020;5.304;2023-12-29T04:39:12;11.60;63.10
19214;DHT22;9741;51.020;5.304;2023-12-29T04:41:43;11.60;63.10
19214;DHT22;9741;51.020;5.304;2023-12-29T04:44:10;11.60;63.10
19214;DHT22;9741;51.020;5.304;2023-12-29T04:46:43;11.60;63.10
19214;DHT22;9741;51.020;5.304;2023-12-29T04:49:11;11.60;63.10
19214;DHT22;9741;51.020;5.304;2023-12-29T04:51:38;11.60;63.70
19214;DHT22;9741;51.020;5.304;2023-12-29T04:54:15;11.60;63.20
19214;DHT22;9741;51.020;5.304;2023-12-29T04:56:47;11.60;63.10
19214;DHT22;9741;51.020;5.304;2023-12-29T04:59:14;11.60;63.10
19214;DHT22;9741;51.020;5.304;2023-12-29T05:01:41;11.60;63.10
19214;DHT22;9741;51.020;5.304;2023-12-29T05:04:08;11.60;63.10
19214;DHT22;9741;51.020;5.304;2023-12-29T05:06:37;11.60;63.10
19214;DHT22;9741;51.020;5.304;2023-12-29T05:09:07;11.60;63.10
19214;DHT22;9741;51.020;5.304;2023-12-29T05:11:37;11.60;63.20
19214;DHT22;9741;51.020;5.304;2023-12-29T05:14:11;11.60;63.20
19214;DHT22;9741;51.020;5.304;2023-12-29T05:16:40;11.60;63.20
19214;DHT22;9741;51.020;5.304;2023-12-29T05:19:11;11.60;63.30
19214;DHT22;9741;51.020;5.304;2023-12-29T05:21:38;11.50;63.20
19214;DHT22;9741;51.020;5.304;2023-12-29T05:24:05;11.50;63.30
19214;DHT22;9741;51.020;5.304;2023-12-29T05:26:32;11.50;63.30
19214;DHT22;9741;51.020;5.304;2023-12-29T05:28:59;11.50;63.30
19214;DHT22;9741;51.020;5.304;2023-12-29T05:31:28;11.50;63.40
19214;DHT22;9741;51.020;5.304;2023-12-29T05:33:56;11.50;63.40
19214;DHT22;9741;51.020;5.304;2023-12-29T05:36:25;11.50;63.40
19214;DHT22;9741;51.020;5.304;2023-12-29T05:38:52;11.50;63.50
19214;DHT22;9741;51.020;5.304;2023-12-29T05:41:19;11.60;63.60
19214;DHT22;9741;51.020;5.304;2023-12-29T05:43:46;11.60;63.60
19214;DHT22;9741;51.020;5.304;2023-12-29T05:46:14;11.60;63.60
19214;DHT22;9741;51.020;5.304;2023-12-29T05:48:42;11.70;63.60
19214;DHT22;9741;51.020;5.304;2023-12-29T05:51:14;11.70;63.60
19214;DHT22;9741;51.020;5.304;2023-12-29T05:53:41;11.70;63.60
19214;DHT22;9741;51.020;5.304;2023-12-29T05:56:11;11.80;63.60
19214;DHT22;9741;51.020;5.304;2023-12-29T05:58:40;11.70;63.50
19214;DHT22;9741;51.020;5.304;2023-12-29T06:01:08;11.80;63.60
19214;DHT22;9741;51.020;5.304;2023-12-29T06:03:35;11.80;63.60
19214;DHT22;9741;51.020;5.304;2023-12-29T06:06:04;11.80;63.60
19214;DHT22;9741;51.020;5.304;2023-12-29T06:08:33;11.80;63.60
19214;DHT22;9741;51.020;5.304;2023-12-29T06:11:02;11.80;63.60
19214;DHT22;9741;51.020;5.304;2023-12-29T06:13:32;11.90;63.70
19214;DHT22;9741;51.020;5.304;2023-12-29T06:16:00;11.90;63.70
19214;DHT22;9741;51.020;5.304;2023-12-29T06:18:27;11.90;63.70
19214;DHT22;9741;51.020;5.304;2023-12-29T06:20:57;11.90;63.80
19214;DHT22;9741;51.020;5.304;2023-12-29T06:23:37;11.90;63.80
19214;DHT22;9741;51.020;5.304;2023-12-29T06:26:04;11.90;63.80
19214;DHT22;9741;51.020;5.304;2023-12-29T06:28:31;11.90;63.80
19214;DHT22;9741;51.020;5.304;2023-12-29T06:30:59;11.90;63.80
19214;DHT22;9741;51.020;5.304;2023-12-29T06:33:29;11.90;63.90
19214;DHT22;9741;51.020;5.304;2023-12-29T06:35:56;11.80;63.90
19214;DHT22;9741;51.020;5.304;2023-12-29T06:38:23;11.80;64.00
19214;DHT22;9741;51.020;5.304;2023-12-29T06:40:51;11.70;64.10
19214;DHT22;9741;51.020;5.304;2023-12-29T06:43:19;11.70;64.30
19214;DHT22;9741;51.020;5.304;2023-12-29T06:45:49;11.60;64.40
19214;DHT22;9741;51.020;5.304;2023-12-29T06:48:18;11.60;64.50
19214;DHT22;9741;51.020;5.304;2023-12-29T06:50:46;11.50;64.60
19214;DHT22;9741;51.020;5.304;2023-12-29T06:53:16;11.50;64.70
19214;DHT22;9741;51.020;5.304;2023-12-29T06:55:46;11.40;64.80
19214;DHT22;9741;51.020;5.304;2023-12-29T06:58:14;11.40;65.00
19214;DHT22;9741;51.020;5.304;2023-12-29T07:00:42;11.30;65.00
19214;DHT22;9741;51.020;5.304;2023-12-29T07:03:09;11.30;65.20
19214;DHT22;9741;51.020;5.304;2023-12-29T07:05:39;11.20;65.40
19214;DHT22;9741;51.020;5.304;2023-12-29T07:08:07;11.20;65.50
19214;DHT22;9741;51.020;5.304;2023-12-29T07:10:34;11.10;65.60
19214;DHT22;9741;51.020;5.304;2023-12-29T07:13:03;11.10;65.80
19214;DHT22;9741;51.020;5.304;2023-12-29T07:15:34;11.10;66.00
19214;DHT22;9741;51.020;5.304;2023-12-29T07:18:04;11.00;66.10
19214;DHT22;9741;51.020;5.304;2023-12-29T07:20:31;11.00;66.30
19214;DHT22;9741;51.020;5.304;2023-12-29T07:23:00;11.00;66.50
19214;DHT22;9741;51.020;5.304;2023-12-29T07:25:29;11.00;66.60
19214;DHT22;9741;51.020;5.304;2023-12-29T07:27:56;11.00;66.80
19214;DHT22;9741;51.020;5.304;2023-12-29T07:30:23;10.90;66.80
19214;DHT22;9741;51.020;5.304;2023-12-29T07:32:53;10.90;67.00
19214;DHT22;9741;51.020;5.304;2023-12-29T07:35:20;10.90;67.10
19214;DHT22;9741;51.020;5.304;2023-12-29T07:37:47;10.90;67.30
19214;DHT22;9741;51.020;5.304;2023-12-29T07:40:17;10.90;67.40
19214;DHT22;9741;51.020;5.304;2023-12-29T07:42:48;10.90;67.50
19214;DHT22;9741;51.020;5.304;2023-12-29T07:45:16;10.90;67.60
19214;DHT22;9741;51.020;5.304;2023-12-29T07:47:43;10.80;67.80
19214;DHT22;9741;51.020;5.304;2023-12-29T07:50:13;10.80;67.90
19214;DHT22;9741;51.020;5.304;2023-12-29T07:52:43;10.80;67.90
19214;DHT22;9741;51.020;5.304;2023-12-29T07:55:15;10.80;68.10
19214;DHT22;9741;51.020;5.304;2023-12-29T07:57:44;10.70;68.20
19214;DHT22;9741;51.020;5.304;2023-12-29T08:00:14;10.70;68.40
19214;DHT22;9741;51.020;5.304;2023-12-29T08:02:43;10.70;68.50
19214;DHT22;9741;51.020;5.304;2023-12-29T08:05:17;10.80;68.80
19214;DHT22;9741;51.020;5.304;2023-12-29T08:07:46;10.80;68.90
19214;DHT22;9741;51.020;5.304;2023-12-29T08:10:14;10.70;69.00
19214;DHT22;9741;51.020;5.304;2023-12-29T08:12:46;10.70;69.10
19214;DHT22;9741;51.020;5.304;2023-12-29T08:15:13;10.80;69.40
19214;DHT22;9741;51.020;5.304;2023-12-29T08:17:44;10.80;69.40
19214;DHT22;9741;51.020;5.304;2023-12-29T08:20:14;10.80;69.60
19214;DHT22;9741;51.020;5.304;2023-12-29T08:22:46;10.80;69.70
19214;DHT22;9741;51.020;5.304;2023-12-29T08:25:22;10.80;69.80
19214;DHT22;9741;51.020;5.304;2023-12-29T08:27:50;10.80;69.90
19214;DHT22;9741;51.020;5.304;2023-12-29T08:30:20;10.80;70.00
19214;DHT22;9741;51.020;5.304;2023-12-29T08:32:48;10.80;70.10
19214;DHT22;9741;51.020;5.304;2023-12-29T08:35:19;10.90;70.20
19214;DHT22;9741;51.020;5.304;2023-12-29T08:37:53;10.90;70.30
19214;DHT22;9741;51.020;5.304;2023-12-29T08:40:25;10.90;70.40
19214;DHT22;9741;51.020;5.304;2023-12-29T08:42:52;10.90;70.50
19214;DHT22;9741;51.020;5.304;2023-12-29T08:45:20;10.90;70.50
19214;DHT22;9741;51.020;5.304;2023-12-29T08:47:49;11.00;70.70
19214;DHT22;9741;51.020;5.304;2023-12-29T08:50:18;11.00;70.70
19214;DHT22;9741;51.020;5.304;2023-12-29T08:52:48;11.00;70.70
19214;DHT22;9741;51.020;5.304;2023-12-29T08:55:16;11.00;70.70
19214;DHT22;9741;51.020;5.304;2023-12-29T08:57:49;11.10;70.90
19214;DHT22;9741;51.020;5.304;2023-12-29T09:00:19;11.10;70.90
19214;DHT22;9741;51.020;5.304;2023-12-29T09:02:47;11.10;71.00
19214;DHT22;9741;51.020;5.304;2023-12-29T09:05:19;11.10;71.00
19214;DHT22;9741;51.020;5.304;2023-12-29T09:07:49;11.10;71.00
19214;DHT22;9741;51.020;5.304;2023-12-29T09:10:18;11.10;71.10
19214;DHT22;9741;51.020;5.304;2023-12-29T09:12:48;11.10;71.20
19214;DHT22;9741;51.020;5.304;2023-12-29T09:15:17;11.20;71.30
19214;DHT22;9741;51.020;5.304;2023-12-29T09:17:47;11.20;71.40
19214;DHT22;9741;51.020;5.304;2023-12-29T09:20:17;11.20;71.50
19214;DHT22;9741;51.020;5.304;2023-12-29T09:22:50;11.30;71.60
19214;DHT22;9741;51.020;5.304;2023-12-29T09:25:23;11.30;71.60
19214;DHT22;9741;51.020;5.304;2023-12-29T09:27:50;11.30;71.60
19214;DHT22;9741;51.020;5.304;2023-12-29T09:30:18;11.30;71.50
19214;DHT22;9741;51.020;5.304;2023-12-29T09:32:49;11.20;71.20
19214;DHT22;9741;51.020;5.304;2023-12-29T09:35:19;11.00;70.90
19214;DHT22;9741;51.020;5.304;2023-12-29T09:37:57;10.90;71.00
19214;DHT22;9741;51.020;5.304;2023-12-29T09:40:31;10.80;71.10
19214;DHT22;9741;51.020;5.304;2023-12-29T09:42:59;10.70;71.30
19214;DHT22;9741;51.020;5.304;2023-12-29T09:45:30;10.60;71.40
19214;DHT22;9741;51.020;5.304;2023-12-29T09:48:05;10.60;71.50
19214;DHT22;9741;51.020;5.304;2023-12-29T09:50:39;10.60;71.80
19214;DHT22;9741;51.020;5.304;2023-12-29T09:53:07;10.70;72.10
19214;DHT22;9741;51.020;5.304;2023-12-29T09:55:45;10.80;72.30
19214;DHT22;9741;51.020;5.304;2023-12-29T09:58:15;10.90;72.40
19214;DHT22;9741;51.020;5.304;2023-12-29T10:00:47;11.00;72.70
19214;DHT22;9741;51.020;5.304;2023-12-29T10:03:18;11.20;73.00
19214;DHT22;9741;51.020;5.304;2023-12-29T10:05:51;11.30;72.90
19214;DHT22;9741;51.020;5.304;2023-12-29T10:08:23;11.50;73.00
19214;DHT22;9741;51.020;5.304;2023-12-29T10:10:58;11.60;73.60
19214;DHT22;9741;51.020;5.304;2023-12-29T10:13:29;11.80;73.10
19214;DHT22;9741;51.020;5.304;2023-12-29T10:16:07;11.90;73.10
19214;DHT22;9741;51.020;5.304;2023-12-29T10:18:40;12.00;73.10
19214;DHT22;9741;51.020;5.304;2023-12-29T10:21:16;12.10;73.10
19214;DHT22;9741;51.020;5.304;2023-12-29T10:23:56;12.20;73.00
19214;DHT22;9741;51.020;5.304;2023-12-29T10:26:29;12.20;72.90
19214;DHT22;9741;51.020;5.304;2023-12-29T10:29:02;12.10;72.60
19214;DHT22;9741;51.020;5.304;2023-12-29T10:31:29;12.10;72.60
19214;DHT22;9741;51.020;5.304;2023-12-29T10:34:17;12.00;72.70
19214;DHT22;9741;51.020;5.304;2023-12-29T10:36:55;11.90;72.80
19214;DHT22;9741;51.020;5.304;2023-12-29T10:39:22;11.90;73.00
19214;DHT22;9741;51.020;5.304;2023-12-29T10:42:03;11.90;73.10
19214;DHT22;9741;51.020;5.304;2023-12-29T10:44:35;11.90;73.10
19214;DHT22;9741;51.020;5.304;2023-12-29T10:47:09;11.80;73.10
19214;DHT22;9741;51.020;5.304;2023-12-29T10:49:37;11.80;73.20
19214;DHT22;9741;51.020;5.304;2023-12-29T10:52:11;11.80;73.30
19214;DHT22;9741;51.020;5.304;2023-12-29T10:54:45;11.90;73.40
19214;DHT22;9741;51.020;5.304;2023-12-29T10:57:14;11.90;73.50
19214;DHT22;9741;51.020;5.304;2023-12-29T10:59:55;11.90;73.50
19214;DHT22;9741;51.020;5.304;2023-12-29T11:02:25;11.90;73.50
19214;DHT22;9741;51.020;5.304;2023-12-29T11:05:09;11.80;73.40
19214;DHT22;9741;51.020;5.304;2023-12-29T11:07:46;11.90;73.60
19214;DHT22;9741;51.020;5.304;2023-12-29T11:10:26;11.80;73.50
19214;DHT22;9741;51.020;5.304;2023-12-29T11:12:55;11.90;73.80
19214;DHT22;9741;51.020;5.304;2023-12-29T11:15:28;11.90;73.80
19214;DHT22;9741;51.020;5.304;2023-12-29T11:18:00;12.00;74.00
19214;DHT22;9741;51.020;5.304;2023-12-29T11:20:30;12.10;74.20
19214;DHT22;9741;51.020;5.304;2023-12-29T11:25:50;12.30;74.30
19214;DHT22;9741;51.020;5.304;2023-12-29T11:28:26;12.40;74.20
19214;DHT22;9741;51.020;5.304;2023-12-29T11:30:58;12.50;74.20
19214;DHT22;9741;51.020;5.304;2023-12-29T11:33:34;12.60;74.30
19214;DHT22;9741;51.020;5.304;2023-12-29T11:36:13;12.60;74.20
19214;DHT22;9741;51.020;5.304;2023-12-29T11:38:57;12.60;74.10
19214;DHT22;9741;51.020;5.304;2023-12-29T11:41:37;12.50;73.90
19214;DHT22;9741;51.020;5.304;2023-12-29T11:44:07;12.40;73.90
19214;DHT22;9741;51.020;5.304;2023-12-29T11:46:37;12.30;73.90
19214;DHT22;9741;51.020;5.304;2023-12-29T11:49:12;12.30;74.20
19214;DHT22;9741;51.020;5.304;2023-12-29T11:51:40;12.30;74.30
19214;DHT22;9741;51.020;5.304;2023-12-29T11:54:25;12.20;74.30
19214;DHT22;9741;51.020;5.304;2023-12-29T11:56:56;12.20;74.30
19214;DHT22;9741;51.020;5.304;2023-12-29T11:59:58;12.20;74.60
19214;DHT22;9741;51.020;5.304;2023-12-29T12:02:28;12.30;74.90
19214;DHT22;9741;51.020;5.304;2023-12-29T12:04:58;12.30;75.00
19214;DHT22;9741;51.020;5.304;2023-12-29T12:07:58;12.40;75.00
19214;DHT22;9741;51.020;5.304;2023-12-29T12:10:31;12.50;75.00
19214;DHT22;9741;51.020;5.304;2023-12-29T12:13:02;12.50;74.90
19214;DHT22;9741;51.020;5.304;2023-12-29T12:15:38;12.50;75.00
19214;DHT22;9741;51.020;5.304;2023-12-29T12:18:11;12.60;75.10
19214;DHT22;9741;51.020;5.304;2023-12-29T12:20:41;12.60;75.20
19214;DHT22;9741;51.020;5.304;2023-12-29T12:23:19;12.60;75.20
19214;DHT22;9741;51.020;5.304;2023-12-29T12:25:51;12.60;75.20
19214;DHT22;9741;51.020;5.304;2023-12-29T12:28:29;12.70;75.30
19214;DHT22;9741;51.020;5.304;2023-12-29T12:31:16;12.70;75.30
19214;DHT22;9741;51.020;5.304;2023-12-29T12:33:53;12.70;75.20
19214;DHT22;9741;51.020;5.304;2023-12-29T12:36:26;12.70;75.10
19214;DHT22;9741;51.020;5.304;2023-12-29T12:38:55;12.70;75.10
19214;DHT22;9741;51.020;5.304;2023-12-29T12:41:24;12.70;75.10
19214;DHT22;9741;51.020;5.304;2023-12-29T12:43:58;12.70;75.00
19214;DHT22;9741;51.020;5.304;2023-12-29T12:46:34;12.60;74.90
19214;DHT22;9741;51.020;5.304;2023-12-29T12:49:03;12.60;74.90
19214;DHT22;9741;51.020;5.304;2023-12-29T12:51:32;12.60;74.90
19214;DHT22;9741;51.020;5.304;2023-12-29T12:54:00;12.50;74.80
19214;DHT22;9741;51.020;5.304;2023-12-29T12:56:33;12.50;74.80
19214;DHT22;9741;51.020;5.304;2023-12-29T12:59:04;12.40;74.70
19214;DHT22;9741;51.020;5.304;2023-12-29T13:01:41;12.30;74.60
19214;DHT22;9741;51.020;5.304;2023-12-29T13:04:08;12.30;74.70
19214;DHT22;9741;51.020;5.304;2023-12-29T13:06:53;12.20;74.70
19214;DHT22;9741;51.020;5.304;2023-12-29T13:09:20;12.20;74.90
19214;DHT22;9741;51.020;5.304;2023-12-29T13:11:56;12.10;74.90
19214;DHT22;9741;51.020;5.304;2023-12-29T13:14:40;12.10;74.90
19214;DHT22;9741;51.020;5.304;2023-12-29T13:17:27;12.00;74.80
19214;DHT22;9741;51.020;5.304;2023-12-29T13:19:57;11.90;74.80
19214;DHT22;9741;51.020;5.304;2023-12-29T13:22:38;11.80;74.80
19214;DHT22;9741;51.020;5.304;2023-12-29T13:25:11;11.80;75.00
19214;DHT22;9741;51.020;5.304;2023-12-29T13:27:39;11.80;75.10
19214;DHT22;9741;51.020;5.304;2023-12-29T13:30:13;11.70;75.20
19214;DHT22;9741;51.020;5.304;2023-12-29T13:32:56;11.70;75.30
19214;DHT22;9741;51.020;5.304;2023-12-29T13:35:25;11.70;75.30
19214;DHT22;9741;51.020;5.304;2023-12-29T13:38:07;11.70;75.40
19214;DHT22;9741;51.020;5.304;2023-12-29T13:40:42;11.70;75.40
19214;DHT22;9741;51.020;5.304;2023-12-29T13:43:20;11.70;75.40
19214;DHT22;9741;51.020;5.304;2023-12-29T13:45:52;11.70;75.40
19214;DHT22;9741;51.020;5.304;2023-12-29T13:48:22;11.70;75.40
19214;DHT22;9741;51.020;5.304;2023-12-29T13:50:51;11.70;75.40
19214;DHT22;9741;51.020;5.304;2023-12-29T13:53:22;11.70;75.40
19214;DHT22;9741;51.020;5.304;2023-12-29T13:55:51;11.70;75.40
19214;DHT22;9741;51.020;5.304;2023-12-29T13:58:30;11.70;75.40
19214;DHT22;9741;51.020;5.304;2023-12-29T14:00:58;11.70;75.30
19214;DHT22;9741;51.020;5.304;2023-12-29T14:03:37;11.70;75.40
19214;DHT22;9741;51.020;5.304;2023-12-29T14:06:08;11.70;75.50
19214;DHT22;9741;51.020;5.304;2023-12-29T14:08:45;11.70;75.60
19214;DHT22;9741;51.020;5.304;2023-12-29T14:11:15;11.70;75.60
19214;DHT22;9741;51.020;5.304;2023-12-29T14:13:46;11.70;75.70
19214;DHT22;9741;51.020;5.304;2023-12-29T14:16:18;11.70;75.80
19214;DHT22;9741;51.020;5.304;2023-12-29T14:19:03;11.70;75.90
19214;DHT22;9741;51.020;5.304;2023-12-29T14:21:34;11.80;76.00
19214;DHT22;9741;51.020;5.304;2023-12-29T14:24:08;11.80;76.00
19214;DHT22;9741;51.020;5.304;2023-12-29T14:26:38;11.80;76.00
19214;DHT22;9741;51.020;5.304;2023-12-29T14:29:11;11.80;76.00
19214;DHT22;9741;51.020;5.304;2023-12-29T14:31:43;11.90;76.10
19214;DHT22;9741;51.020;5.304;2023-12-29T14:34:14;11.90;76.10
19214;DHT22;9741;51.020;5.304;2023-12-29T14:36:42;11.90;76.20
19214;DHT22;9741;51.020;5.304;2023-12-29T14:39:13;11.90;76.20
19214;DHT22;9741;51.020;5.304;2023-12-29T14:41:41;11.90;76.10
19214;DHT22;9741;51.020;5.304;2023-12-29T14:44:09;11.90;76.10
19214;DHT22;9741;51.020;5.304;2023-12-29T14:46:42;11.90;76.10
19214;DHT22;9741;51.020;5.304;2023-12-29T14:49:16;11.80;76.00
19214;DHT22;9741;51.020;5.304;2023-12-29T14:51:45;11.80;76.20
19214;DHT22;9741;51.020;5.304;2023-12-29T14:54:16;11.80;76.20
19214;DHT22;9741;51.020;5.304;2023-12-29T14:56:43;11.80;76.30
19214;DHT22;9741;51.020;5.304;2023-12-29T14:59:11;11.80;76.40
19214;DHT22;9741;51.020;5.304;2023-12-29T15:01:41;11.80;76.40
19214;DHT22;9741;51.020;5.304;2023-12-29T15:04:09;11.80;76.40
19214;DHT22;9741;51.020;5.304;2023-12-29T15:06:41;11.80;76.40
19214;DHT22;9741;51.020;5.304;2023-12-29T15:09:13;11.80;76.40
19214;DHT22;9741;51.020;5.304;2023-12-29T15:11:40;11.80;76.50
19214;DHT22;9741;51.020;5.304;2023-12-29T15:14:08;11.80;76.40
19214;DHT22;9741;51.020;5.304;2023-12-29T15:16:35;11.80;76.50
19214;DHT22;9741;51.020;5.304;2023-12-29T15:19:03;11.80;76.40
19214;DHT22;9741;51.020;5.304;2023-12-29T15:21:36;11.70;76.40
19214;DHT22;9741;51.020;5.304;2023-12-29T15:24:06;11.70;76.50
19214;DHT22;9741;51.020;5.304;2023-12-29T15:26:38;11.70;76.60
19214;DHT22;9741;51.020;5.304;2023-12-29T15:29:09;11.60;76.50
19214;DHT22;9741;51.020;5.304;2023-12-29T15:31:42;11.60;76.60
19214;DHT22;9741;51.020;5.304;2023-12-29T15:34:13;11.60;76.70
19214;DHT22;9741;51.020;5.304;2023-12-29T15:36:42;11.60;76.80
19214;DHT22;9741;51.020;5.304;2023-12-29T15:39:12;11.60;76.80
19214;DHT22;9741;51.020;5.304;2023-12-29T15:41:40;11.60;76.80
19214;DHT22;9741;51.020;5.304;2023-12-29T15:44:10;11.60;76.90
19214;DHT22;9741;51.020;5.304;2023-12-29T15:46:37;11.60;76.90
19214;DHT22;9741;51.020;5.304;2023-12-29T15:49:06;11.60;77.00
19214;DHT22;9741;51.020;5.304;2023-12-29T15:51:34;11.70;77.10
19214;DHT22;9741;51.020;5.304;2023-12-29T15:54:03;11.60;77.00
19214;DHT22;9741;51.020;5.304;2023-12-29T15:56:38;11.60;77.00
19214;DHT22;9741;51.020;5.304;2023-12-29T15:59:05;11.60;77.00
19214;DHT22;9741;51.020;5.304;2023-12-29T16:01:34;11.60;77.00
19214;DHT22;9741;51.020;5.304;2023-12-29T16:04:04;11.60;77.00
19214;DHT22;9741;51.020;5.304;2023-12-29T16:06:35;11.60;77.10
19214;DHT22;9741;51.020;5.304;2023-12-29T16:09:07;11.60;77.20